Time;durP1;ratioP1;P1;durP2;ratioP2;P2;SDS_P1;SDS_P2;PMS_P1;PMS_P2;Temp;Humidity;BMP_temperature;BMP_pressure;BME280_temperature;BME280_humidity;BME280_pressure;Samples;Min_cycle;Max_cycle;Signal;HPM_P1;HPM_P2
2023/04/23 00:01:19;;;;;;;14.43;10.20;;;10.40;99.90;;;;;;5096998;28;20461;-83
2023/04/23 00:03:48;;;;;;;18.38;11.32;;;10.40;99.90;;;;;;5094461;28;20316;-84
2023/04/23 00:06:16;;;;;;;16.48;10.80;;;10.20;99.90;;;;;;5107453;28;20023;-84
2023/04/23 00:08:42;;;;;;;19.00;11.63;;;10.20;99.90;;;;;;5100373;28;20024;-84
2023/04/23 00:11:09;;;;;;;14.63;11.10;;;10.20;99.90;;;;;;5100890;28;20027;-83
2023/04/23 00:13:35;;;;;;;14.43;10.80;;;10.20;99.90;;;;;;5095730;28;20115;-83
2023/04/23 00:16:01;;;;;;;19.15;11.55;;;10.20;99.90;;;;;;5098710;28;20100;-84
2023/04/23 00:18:28;;;;;;;24.10;13.73;;;10.20;99.90;;;;;;5113201;28;20504;-84
2023/04/23 00:20:54;;;;;;;17.60;12.25;;;10.20;99.90;;;;;;5097619;28;20457;-83
2023/04/23 00:23:20;;;;;;;21.92;12.90;;;10.20;99.90;;;;;;5094959;28;20592;-84
2023/04/23 00:25:46;;;;;;;22.13;14.18;;;10.20;99.90;;;;;;5100103;28;20032;-84
2023/04/23 00:28:11;;;;;;;23.88;13.48;;;10.30;99.90;;;;;;5095449;28;20024;-83
2023/04/23 00:30:37;;;;;;;37.75;16.75;;;10.30;99.90;;;;;;5095166;28;20055;-84
2023/04/23 00:33:03;;;;;;;30.05;14.95;;;10.40;99.90;;;;;;5095033;28;20024;-84
2023/04/23 00:35:29;;;;;;;27.85;14.48;;;10.40;99.90;;;;;;5094805;28;20438;-84
2023/04/23 00:37:55;;;;;;;21.48;12.95;;;10.40;99.90;;;;;;5094894;28;20039;-84
2023/04/23 00:40:22;;;;;;;21.95;13.25;;;10.40;99.90;;;;;;5095202;28;20116;-84
2023/04/23 00:42:51;;;;;;;21.10;13.55;;;10.40;99.90;;;;;;5100353;28;20111;-83
2023/04/23 00:45:17;;;;;;;24.17;13.48;;;10.30;99.90;;;;;;5094271;28;20023;-83
2023/04/23 00:47:43;;;;;;;17.80;12.13;;;10.30;99.90;;;;;;5094727;28;20477;-84
2023/04/23 00:50:08;;;;;;;24.50;13.18;;;10.30;99.90;;;;;;5095990;28;20020;-83
2023/04/23 00:52:34;;;;;;;24.23;13.23;;;10.30;99.90;;;;;;5094942;28;20065;-84
2023/04/23 00:55:01;;;;;;;29.42;13.65;;;10.30;99.90;;;;;;5098031;28;20053;-84
2023/04/23 00:57:27;;;;;;;25.13;13.13;;;10.30;99.90;;;;;;5107660;28;20024;-84
2023/04/23 00:59:55;;;;;;;22.50;12.50;;;10.30;99.90;;;;;;5094285;28;20035;-85
2023/04/23 01:02:22;;;;;;;20.88;12.25;;;10.20;99.90;;;;;;5093824;28;20069;-84
2023/04/23 01:04:53;;;;;;;26.23;15.32;;;10.20;99.90;;;;;;5098183;28;20366;-84
2023/04/23 01:07:20;;;;;;;26.80;15.15;;;10.20;99.90;;;;;;5096271;28;20034;-85
2023/04/23 01:09:46;;;;;;;25.67;15.05;;;10.20;99.90;;;;;;5095622;28;20031;-84
2023/04/23 01:12:14;;;;;;;21.02;13.95;;;10.10;99.90;;;;;;5098811;28;20020;-84
2023/04/23 01:14:41;;;;;;;20.80;14.45;;;10.10;99.90;;;;;;5096467;28;20019;-84
2023/04/23 01:17:08;;;;;;;23.23;13.80;;;10.10;99.90;;;;;;5114899;28;20054;-84
2023/04/23 01:19:35;;;;;;;23.13;13.88;;;10.10;99.90;;;;;;5098921;28;20442;-84
2023/04/23 01:22:01;;;;;;;24.65;13.00;;;10.10;99.90;;;;;;5094843;28;20370;-83
2023/04/23 01:24:31;;;;;;;22.80;12.60;;;10.00;99.90;;;;;;5096020;28;20047;-83
2023/04/23 01:26:57;;;;;;;17.27;11.85;;;10.10;99.90;;;;;;5095753;28;20094;-83
2023/04/23 01:29:24;;;;;;;19.88;11.77;;;10.10;99.90;;;;;;5094800;28;20047;-84
2023/04/23 01:31:50;;;;;;;19.63;12.68;;;10.00;99.90;;;;;;5099227;28;20024;-83
2023/04/23 01:34:17;;;;;;;21.55;12.40;;;10.00;99.90;;;;;;5114696;28;20035;-84
2023/04/23 01:36:43;;;;;;;28.30;13.27;;;10.00;99.90;;;;;;5114890;28;20023;-83
2023/04/23 01:39:09;;;;;;;17.80;12.75;;;10.00;99.90;;;;;;5097617;28;20036;-84
2023/04/23 01:41:35;;;;;;;17.67;11.45;;;9.90;99.90;;;;;;5110112;28;20034;-84
2023/04/23 01:44:01;;;;;;;24.40;12.32;;;9.80;99.90;;;;;;5080762;28;20417;-84
2023/04/23 01:46:28;;;;;;;20.73;12.77;;;9.90;99.90;;;;;;5071944;28;20459;-84
2023/04/23 01:48:54;;;;;;;29.27;16.13;;;9.90;99.90;;;;;;5074086;28;20421;-84
2023/04/23 01:51:19;;;;;;;36.80;17.13;;;9.90;99.90;;;;;;5074476;28;20020;-84
2023/04/23 01:53:45;;;;;;;21.50;14.10;;;9.80;99.90;;;;;;5071194;28;20024;-82
2023/04/23 01:56:13;;;;;;;25.05;13.43;;;9.80;99.90;;;;;;5071877;28;20092;-84
2023/04/23 01:58:39;;;;;;;28.30;14.15;;;9.80;99.90;;;;;;5077695;28;20032;-85
2023/04/23 02:01:05;;;;;;;30.95;15.48;;;9.70;99.90;;;;;;5071343;28;20056;-84
2023/04/23 02:03:32;;;;;;;40.05;16.58;;;9.70;99.90;;;;;;5071850;28;20024;-84
2023/04/23 02:05:59;;;;;;;24.27;14.07;;;9.60;99.90;;;;;;5056017;28;20024;-85
2023/04/23 02:08:26;;;;;;;26.55;13.02;;;9.60;99.90;;;;;;5057630;28;20036;-84
2023/04/23 02:10:52;;;;;;;18.92;12.10;;;9.60;99.90;;;;;;5075525;28;20028;-83
2023/04/23 02:13:18;;;;;;;18.02;11.75;;;9.50;99.90;;;;;;5092875;28;20480;-84
2023/04/23 02:15:44;;;;;;;22.83;13.98;;;9.60;99.90;;;;;;5092249;28;20041;-83
2023/04/23 02:18:09;;;;;;;20.88;11.95;;;9.60;99.90;;;;;;5092552;28;20082;-84
2023/04/23 02:20:39;;;;;;;20.15;12.43;;;9.50;99.90;;;;;;5092237;28;20054;-84
2023/04/23 02:23:08;;;;;;;23.85;12.73;;;9.50;99.90;;;;;;5094653;28;20020;-84
2023/04/23 02:25:37;;;;;;;21.38;12.30;;;9.50;99.90;;;;;;5093567;28;20054;-84
2023/04/23 02:28:05;;;;;;;21.02;12.40;;;9.50;99.90;;;;;;5094840;28;20054;-84
2023/04/23 02:30:32;;;;;;;17.42;10.60;;;9.40;99.90;;;;;;5094230;28;20016;-84
2023/04/23 02:32:58;;;;;;;20.33;10.77;;;9.40;99.90;;;;;;5093230;28;20024;-84
2023/04/23 02:35:24;;;;;;;18.40;10.52;;;9.40;99.90;;;;;;5094611;28;20023;-83
2023/04/23 02:37:50;;;;;;;18.95;9.20;;;9.40;99.90;;;;;;5094500;28;20024;-84
2023/04/23 02:40:16;;;;;;;13.82;9.00;;;9.40;99.90;;;;;;5093426;28;20384;-84
2023/04/23 02:42:42;;;;;;;15.02;9.88;;;9.40;99.90;;;;;;5093351;28;20028;-83
2023/04/23 02:45:08;;;;;;;19.95;12.35;;;9.40;99.90;;;;;;5092541;28;20020;-83
2023/04/23 02:47:34;;;;;;;15.57;10.15;;;9.30;99.90;;;;;;5093740;28;20020;-84
2023/04/23 02:50:04;;;;;;;20.15;9.75;;;9.30;99.90;;;;;;5096793;28;20016;-83
2023/04/23 02:52:30;;;;;;;18.08;9.68;;;9.30;99.90;;;;;;5097082;28;20020;-83
2023/04/23 02:54:56;;;;;;;15.27;10.13;;;9.30;99.90;;;;;;5096636;28;20024;-83
2023/04/23 02:57:22;;;;;;;17.38;9.35;;;9.20;99.90;;;;;;5090218;28;20032;-83
2023/04/23 02:59:49;;;;;;;19.70;9.77;;;9.20;99.90;;;;;;5093672;28;20106;-82
2023/04/23 03:02:15;;;;;;;18.00;9.57;;;9.20;99.90;;;;;;5093418;28;20012;-83
2023/04/23 03:04:40;;;;;;;20.55;9.90;;;9.10;99.90;;;;;;5092405;28;20019;-83
2023/04/23 03:07:06;;;;;;;15.75;8.90;;;9.10;99.90;;;;;;5093721;28;20076;-82
2023/04/23 03:09:32;;;;;;;14.40;9.07;;;9.10;99.90;;;;;;5093781;28;20043;-83
2023/04/23 03:11:58;;;;;;;16.77;7.57;;;9.10;99.90;;;;;;5091982;28;20059;-82
2023/04/23 03:14:24;;;;;;;16.83;8.90;;;9.00;99.90;;;;;;5093403;28;20024;-82
2023/04/23 03:16:50;;;;;;;14.70;8.32;;;9.00;99.90;;;;;;5098085;28;20051;-82
2023/04/23 03:19:16;;;;;;;16.58;9.55;;;9.00;99.90;;;;;;5106601;28;20074;-82
2023/04/23 03:21:42;;;;;;;16.23;9.98;;;9.00;99.90;;;;;;5114196;28;20068;-82
2023/04/23 03:24:10;;;;;;;20.50;11.30;;;9.00;99.90;;;;;;5092329;28;20032;-82
2023/04/23 03:26:36;;;;;;;23.45;11.68;;;8.90;99.90;;;;;;5093909;28;20362;-82
2023/04/23 03:29:01;;;;;;;24.02;12.90;;;8.90;99.90;;;;;;5092738;28;20439;-82
2023/04/23 03:31:27;;;;;;;21.40;12.18;;;8.90;99.90;;;;;;5093804;28;20016;-82
2023/04/23 03:33:53;;;;;;;22.17;13.05;;;9.00;99.90;;;;;;5093865;28;20027;-82
2023/04/23 03:36:19;;;;;;;27.92;14.38;;;8.90;99.90;;;;;;5108210;28;20028;-82
2023/04/23 03:38:44;;;;;;;31.95;14.85;;;9.00;99.90;;;;;;5114278;28;20098;-82
2023/04/23 03:41:13;;;;;;;23.10;14.23;;;9.00;99.90;;;;;;5112563;28;20027;-83
2023/04/23 03:43:39;;;;;;;28.92;14.93;;;9.00;99.90;;;;;;5112767;28;20035;-83
2023/04/23 03:46:05;;;;;;;22.90;14.00;;;9.00;99.90;;;;;;5112232;28;20046;-82
2023/04/23 03:48:31;;;;;;;27.45;13.65;;;9.00;99.90;;;;;;5095124;28;20031;-82
2023/04/23 03:51:00;;;;;;;25.77;12.85;;;9.00;99.90;;;;;;5098169;28;20032;-82
2023/04/23 03:53:27;;;;;;;25.15;13.77;;;9.00;99.90;;;;;;5095975;28;20035;-82
2023/04/23 03:55:52;;;;;;;25.00;13.70;;;9.00;99.90;;;;;;5091621;28;20073;-82
2023/04/23 03:58:18;;;;;;;29.08;14.40;;;8.90;99.90;;;;;;5091545;28;20032;-82
2023/04/23 04:00:44;;;;;;;24.92;13.45;;;8.90;99.90;;;;;;5096918;28;20019;-82
2023/04/23 04:03:10;;;;;;;24.17;13.10;;;8.90;99.90;;;;;;5091614;28;20032;-82
2023/04/23 04:05:36;;;;;;;25.55;12.65;;;8.90;99.90;;;;;;5091655;28;20021;-82
2023/04/23 04:08:03;;;;;;;24.73;11.55;;;8.90;99.90;;;;;;5091710;28;20029;-82
2023/04/23 04:10:29;;;;;;;22.45;11.68;;;8.80;99.90;;;;;;5095236;28;20032;-82
2023/04/23 04:12:55;;;;;;;19.35;11.05;;;8.80;99.90;;;;;;5094263;28;20097;-82
2023/04/23 04:15:21;;;;;;;18.83;12.13;;;8.80;99.90;;;;;;5091316;28;20408;-81
2023/04/23 04:17:47;;;;;;;19.00;10.95;;;8.80;99.90;;;;;;5092720;28;20061;-81
2023/04/23 04:20:13;;;;;;;21.02;11.63;;;8.80;99.90;;;;;;5091604;28;20111;-84
2023/04/23 04:22:39;;;;;;;17.35;11.52;;;8.90;99.90;;;;;;5091361;28;20020;-84
2023/04/23 04:25:05;;;;;;;19.17;11.80;;;8.80;99.90;;;;;;5092568;28;20441;-83
2023/04/23 04:27:34;;;;;;;26.40;13.02;;;8.80;99.90;;;;;;5095940;28;20467;-83
2023/04/23 04:30:00;;;;;;;25.05;13.57;;;8.90;99.90;;;;;;5091192;28;20024;-83
2023/04/23 04:32:27;;;;;;;27.90;14.20;;;8.90;99.90;;;;;;5091499;28;20111;-82
2023/04/23 04:34:53;;;;;;;21.80;13.45;;;9.00;99.90;;;;;;5095174;28;20489;-83
2023/04/23 04:37:20;;;;;;;27.23;13.32;;;9.10;99.90;;;;;;5095060;28;20028;-83
2023/04/23 04:39:46;;;;;;;21.33;11.63;;;9.10;99.90;;;;;;5095245;28;20120;-83
2023/04/23 04:42:11;;;;;;;19.50;10.88;;;9.10;99.90;;;;;;5094835;28;20106;-82
2023/04/23 04:44:38;;;;;;;27.25;10.98;;;9.20;99.90;;;;;;5096366;28;20412;-82
2023/04/23 04:47:05;;;;;;;17.98;10.40;;;9.20;99.90;;;;;;5094707;28;20035;-82
2023/04/23 04:49:31;;;;;;;14.40;9.98;;;9.20;99.90;;;;;;5095621;28;20055;-83
2023/04/23 04:51:57;;;;;;;20.10;10.65;;;9.30;99.90;;;;;;5102094;28;20059;-82
2023/04/23 04:54:22;;;;;;;18.13;10.38;;;9.30;99.90;;;;;;5095032;28;20194;-83
2023/04/23 04:56:48;;;;;;;17.85;9.68;;;9.30;99.90;;;;;;5096078;28;20081;-82
2023/04/23 04:59:14;;;;;;;14.20;9.88;;;9.40;99.90;;;;;;5102134;28;20023;-83
2023/04/23 05:01:40;;;;;;;22.40;11.30;;;9.50;99.90;;;;;;5099502;28;20469;-82
2023/04/23 05:04:06;;;;;;;16.80;10.35;;;9.50;99.90;;;;;;5094333;28;20039;-83
2023/04/23 05:06:32;;;;;;;24.33;12.55;;;9.60;99.90;;;;;;5097873;28;20446;-83
2023/04/23 05:08:57;;;;;;;17.42;9.85;;;9.70;99.90;;;;;;5096193;28;20031;-82
2023/04/23 05:11:23;;;;;;;19.95;10.75;;;9.80;99.90;;;;;;5095070;28;20054;-83
2023/04/23 05:13:50;;;;;;;14.90;10.82;;;10.00;99.90;;;;;;5095263;28;20028;-83
2023/04/23 05:16:15;;;;;;;20.80;11.20;;;10.10;99.90;;;;;;5097275;28;20070;-83
2023/04/23 05:18:41;;;;;;;19.58;12.07;;;10.20;99.90;;;;;;5095710;28;20393;-83
2023/04/23 05:21:08;;;;;;;19.35;10.23;;;10.30;99.90;;;;;;5097005;28;20024;-83
2023/04/23 05:23:35;;;;;;;16.13;9.45;;;10.50;99.90;;;;;;5104203;28;20026;-83
2023/04/23 05:26:02;;;;;;;15.65;9.73;;;10.60;99.90;;;;;;5094492;28;20343;-84
2023/04/23 05:28:29;;;;;;;16.95;10.45;;;10.80;99.90;;;;;;5094634;28;20420;-84
2023/04/23 05:30:56;;;;;;;13.82;9.27;;;10.90;99.90;;;;;;5096092;28;20065;-84
2023/04/23 05:33:22;;;;;;;18.23;8.27;;;11.00;99.90;;;;;;5095618;28;20081;-85
2023/04/23 05:35:47;;;;;;;19.17;9.90;;;11.10;99.90;;;;;;5101484;28;20023;-83
2023/04/23 05:38:13;;;;;;;17.20;9.75;;;11.20;99.90;;;;;;5114422;28;20042;-84
2023/04/23 05:40:39;;;;;;;14.43;9.10;;;11.30;99.90;;;;;;5116234;28;20094;-84
2023/04/23 05:43:05;;;;;;;12.02;8.05;;;11.40;99.90;;;;;;5116128;28;20020;-84
2023/04/23 05:45:31;;;;;;;14.07;9.05;;;11.50;99.90;;;;;;5116060;28;20046;-84
2023/04/23 05:48:00;;;;;;;12.52;8.13;;;11.70;99.90;;;;;;5101884;28;20032;-84
2023/04/23 05:50:25;;;;;;;14.60;9.18;;;11.80;99.90;;;;;;5093938;28;20122;-85
2023/04/23 05:52:54;;;;;;;16.08;8.60;;;11.90;99.90;;;;;;5093014;28;20134;-84
2023/04/23 05:55:22;;;;;;;13.82;8.43;;;12.00;99.90;;;;;;5093646;28;20027;-85
2023/04/23 05:57:51;;;;;;;15.05;8.52;;;12.10;99.90;;;;;;5093501;28;20055;-85
2023/04/23 06:00:17;;;;;;;13.63;8.38;;;12.30;99.90;;;;;;5093734;28;20024;-86
2023/04/23 06:02:46;;;;;;;14.25;8.02;;;12.40;99.90;;;;;;5096125;28;20524;-85
2023/04/23 06:05:12;;;;;;;20.63;9.40;;;12.50;99.90;;;;;;5093033;28;20356;-85
2023/04/23 06:07:39;;;;;;;17.75;9.15;;;12.60;99.90;;;;;;5094743;28;20149;-84
2023/04/23 06:10:06;;;;;;;25.05;11.82;;;12.60;99.90;;;;;;5095087;28;20036;-85
2023/04/23 06:12:31;;;;;;;14.10;8.00;;;12.80;99.90;;;;;;5093053;28;20031;-84
2023/04/23 06:14:57;;;;;;;10.18;7.28;;;12.90;99.90;;;;;;5093151;28;20024;-86
2023/04/23 06:17:23;;;;;;;18.25;10.98;;;13.10;99.90;;;;;;5094457;28;20043;-86
2023/04/23 06:19:49;;;;;;;13.65;8.48;;;13.20;99.90;;;;;;5094743;28;20100;-85
2023/04/23 06:22:14;;;;;;;18.50;10.27;;;13.30;99.90;;;;;;5109756;28;20028;-83
2023/04/23 06:24:40;;;;;;;12.25;8.13;;;13.40;99.90;;;;;;5098971;28;20082;-84
2023/04/23 06:27:06;;;;;;;13.18;8.00;;;13.60;99.90;;;;;;5094501;28;20458;-84
2023/04/23 06:29:32;;;;;;;16.17;8.85;;;13.80;99.90;;;;;;5093071;28;20074;-83
2023/04/23 06:32:01;;;;;;;14.15;8.32;;;14.10;99.90;;;;;;5093274;28;20020;-83
2023/04/23 06:34:27;;;;;;;12.82;7.05;;;14.20;99.90;;;;;;5093004;28;20103;-83
2023/04/23 06:36:57;;;;;;;13.45;8.00;;;14.30;99.90;;;;;;5092696;28;20119;-84
2023/04/23 06:39:22;;;;;;;12.82;7.22;;;14.50;99.90;;;;;;5091863;28;20028;-83
2023/04/23 06:41:48;;;;;;;13.02;7.35;;;14.80;99.90;;;;;;5092917;28;20436;-83
2023/04/23 06:44:20;;;;;;;18.90;8.75;;;14.90;99.40;;;;;;5092483;28;20020;-85
2023/04/23 06:46:45;;;;;;;18.10;7.80;;;15.10;99.90;;;;;;5087699;28;20545;-84
2023/04/23 06:49:11;;;;;;;11.32;7.47;;;15.30;99.90;;;;;;5104547;28;20058;-85
2023/04/23 06:51:37;;;;;;;13.40;7.32;;;15.40;98.30;;;;;;5094234;28;20020;-84
2023/04/23 06:54:03;;;;;;;14.35;7.65;;;15.60;99.20;;;;;;5092648;28;20023;-84
2023/04/23 06:56:29;;;;;;;10.48;7.03;;;15.80;96.70;;;;;;5094658;28;20339;-84
2023/04/23 06:58:55;;;;;;;15.90;7.47;;;16.00;97.00;;;;;;5094797;28;20028;-85
2023/04/23 07:01:23;;;;;;;15.30;8.00;;;16.10;97.20;;;;;;5093503;28;20623;-86
2023/04/23 07:03:51;;;;;;;12.38;7.22;;;16.30;96.80;;;;;;5093820;28;20111;-85
2023/04/23 07:06:17;;;;;;;12.20;6.57;;;16.50;95.50;;;;;;5093050;28;20066;-84
2023/04/23 07:08:44;;;;;;;13.13;7.55;;;16.60;93.70;;;;;;5091866;28;20028;-84
2023/04/23 07:11:10;;;;;;;10.88;7.18;;;16.70;95.00;;;;;;5097060;28;20032;-83
2023/04/23 07:13:36;;;;;;;11.95;7.00;;;16.80;92.70;;;;;;5091718;28;20480;-83
2023/04/23 07:16:05;;;;;;;11.57;6.70;;;17.00;92.90;;;;;;5093226;28;20481;-86
2023/04/23 07:18:36;;;;;;;9.63;6.30;;;17.10;94.20;;;;;;5091918;28;20040;-84
2023/04/23 07:21:01;;;;;;;9.38;6.80;;;17.30;91.60;;;;;;5095485;28;20035;-85
2023/04/23 07:23:27;;;;;;;10.32;6.60;;;17.40;91.20;;;;;;5093847;28;20020;-84
2023/04/23 07:25:53;;;;;;;11.15;6.57;;;17.60;91.60;;;;;;5092023;28;20458;-85
2023/04/23 07:28:19;;;;;;;14.27;8.07;;;17.80;91.50;;;;;;5094063;28;20107;-85
2023/04/23 07:30:45;;;;;;;12.45;7.28;;;18.00;90.90;;;;;;5093400;28;20042;-84
2023/04/23 07:33:11;;;;;;;13.82;8.35;;;18.10;88.70;;;;;;5092938;28;20020;-85
2023/04/23 07:35:37;;;;;;;11.27;7.88;;;18.30;90.00;;;;;;5093009;28;20107;-84
2023/04/23 07:38:03;;;;;;;12.77;7.60;;;18.50;84.80;;;;;;5094086;28;20110;-83
2023/04/23 07:40:28;;;;;;;8.52;6.20;;;18.60;83.70;;;;;;5091927;28;20043;-84
2023/04/23 07:42:55;;;;;;;16.50;6.93;;;18.90;86.50;;;;;;5107336;28;20065;-84
2023/04/23 07:45:20;;;;;;;11.38;6.72;;;18.80;81.30;;;;;;5112305;28;20023;-85
2023/04/23 07:47:48;;;;;;;12.05;7.50;;;19.00;80.40;;;;;;5110984;28;20038;-85
2023/04/23 07:50:14;;;;;;;12.52;6.88;;;19.10;79.30;;;;;;5112671;28;20442;-85
2023/04/23 07:52:40;;;;;;;12.65;6.93;;;19.10;79.00;;;;;;5103293;28;20069;-84
2023/04/23 07:55:07;;;;;;;10.73;7.00;;;19.30;79.50;;;;;;5092712;28;20069;-84
2023/04/23 07:57:33;;;;;;;9.05;6.80;;;19.50;81.70;;;;;;5090702;28;20036;-84
2023/04/23 07:59:58;;;;;;;10.35;7.22;;;19.70;76.70;;;;;;5109959;28;20038;-84
2023/04/23 08:02:26;;;;;;;16.17;7.38;;;20.00;76.00;;;;;;5112138;28;20443;-84
2023/04/23 08:04:52;;;;;;;12.13;6.90;;;20.30;73.50;;;;;;5112532;28;20031;-82
2023/04/23 08:07:18;;;;;;;11.80;7.05;;;20.40;71.00;;;;;;5113895;28;20038;-84
2023/04/23 08:09:44;;;;;;;9.80;6.07;;;20.40;70.20;;;;;;5112775;28;20028;-84
2023/04/23 08:12:10;;;;;;;8.60;6.43;;;20.20;68.60;;;;;;5099851;28;20107;-86
2023/04/23 08:14:36;;;;;;;11.18;6.85;;;20.30;70.60;;;;;;5116341;28;20114;-84
2023/04/23 08:17:05;;;;;;;11.75;6.88;;;20.70;69.10;;;;;;5115734;28;20047;-84
2023/04/23 08:19:32;;;;;;;9.40;6.30;;;20.80;70.40;;;;;;5099169;28;20039;-85
2023/04/23 08:22:01;;;;;;;10.10;6.57;;;21.00;67.60;;;;;;5110540;28;20011;-84
2023/04/23 08:24:27;;;;;;;12.52;6.85;;;21.30;70.30;;;;;;5117363;28;20024;-84
2023/04/23 08:26:52;;;;;;;11.60;6.45;;;21.50;65.30;;;;;;5116644;28;20093;-83
2023/04/23 08:29:18;;;;;;;9.85;7.03;;;21.60;63.90;;;;;;5116345;28;20454;-83
2023/04/23 08:31:44;;;;;;;10.55;6.68;;;21.80;67.80;;;;;;5117053;28;20411;-85
2023/04/23 08:34:10;;;;;;;12.70;7.22;;;22.00;60.40;;;;;;5116386;28;20342;-84
2023/04/23 08:36:36;;;;;;;9.88;6.28;;;21.90;60.70;;;;;;5116100;28;20045;-84
2023/04/23 08:39:02;;;;;;;10.88;6.25;;;;;;;;;;5116163;28;20035;-84
2023/04/23 08:41:37;;;;;;;13.00;6.65;;;22.30;64.20;;;;;;5117482;28;20493;-84
2023/04/23 08:48:00;;;;;;;9.32;7.03;;;22.40;62.50;;;;;;5099006;27;20153;-81
2023/04/23 08:50:28;;;;;;;12.80;6.68;;;22.70;60.30;;;;;;5073538;28;20029;-82
2023/04/23 08:52:56;;;;;;;13.07;7.13;;;22.80;56.30;;;;;;5084763;28;20107;-83
2023/04/23 08:55:26;;;;;;;12.10;7.03;;;22.80;58.50;;;;;;5091264;28;20055;-82
2023/04/23 08:57:52;;;;;;;13.88;7.45;;;22.90;56.70;;;;;;5091145;28;20025;-82
2023/04/23 09:00:22;;;;;;;15.23;7.65;;;22.90;59.10;;;;;;5089862;28;20412;-83
2023/04/23 09:02:49;;;;;;;14.35;7.47;;;23.00;55.50;;;;;;5089733;28;20065;-82
2023/04/23 09:05:16;;;;;;;12.18;6.63;;;23.00;57.60;;;;;;5089313;28;20056;-82
2023/04/23 09:07:42;;;;;;;13.75;7.60;;;23.00;56.50;;;;;;5089785;28;20028;-82
2023/04/23 09:10:13;;;;;;;11.02;6.72;;;23.30;52.50;;;;;;5090956;28;20060;-83
2023/04/23 09:12:41;;;;;;;11.82;7.30;;;23.40;53.70;;;;;;5072948;28;20051;-82
2023/04/23 09:15:11;;;;;;;12.27;6.88;;;;;;;;;;5083015;28;20025;-83
2023/04/23 09:17:43;;;;;;;10.20;6.63;;;23.80;51.90;;;;;;5091172;28;20366;-81
2023/04/23 09:20:11;;;;;;;12.20;7.10;;;23.70;50.20;;;;;;5090378;28;20024;-82
2023/04/23 09:22:45;;;;;;;10.93;6.60;;;23.60;48.70;;;;;;5090674;28;20030;-81
2023/04/23 09:25:15;;;;;;;11.10;6.32;;;24.00;49.70;;;;;;5089392;28;20119;-81
2023/04/23 09:27:41;;;;;;;11.27;5.82;;;;;;;;;;5090231;28;20024;-82
2023/04/23 09:30:09;;;;;;;9.63;6.13;;;;;;;;;;5089328;28;20027;-80
2023/04/23 09:32:36;;;;;;;11.18;6.82;;;;;;;;;;5088977;28;20363;-80
2023/04/23 09:35:03;;;;;;;10.32;6.30;;;;;;;;;;5089206;28;20035;-82
2023/04/23 09:37:30;;;;;;;9.95;6.20;;;;;;;;;;5089143;28;20024;-81
2023/04/23 09:40:00;;;;;;;8.45;6.00;;;;;;;;;;5088898;28;20115;-80
2023/04/23 09:42:27;;;;;;;7.60;6.20;;;;;;;;;;5088983;28;20031;-82
2023/04/23 09:45:12;;;;;;;9.93;6.53;;;;;;;;;;5090341;28;20020;-81
2023/04/23 09:47:39;;;;;;;6.47;5.82;;;;;;;;;;5065530;28;20049;-82
2023/04/23 09:50:06;;;;;;;8.35;5.15;;;;;;;;;;5050213;28;20360;-81
2023/04/23 09:52:32;;;;;;;7.90;5.07;;;;;;;;;;5069876;28;20024;-82
2023/04/23 09:55:01;;;;;;;7.40;4.60;;;;;;;;;;5069429;28;20119;-80
2023/04/23 09:57:27;;;;;;;7.78;5.18;;;;;;;;;;5065111;28;20471;-80
2023/04/23 09:59:57;;;;;;;8.80;4.90;;;;;;;;;;5055279;28;20024;-82
2023/04/23 10:02:29;;;;;;;10.02;4.72;;;;;;;;;;5054819;28;20091;-81
2023/04/23 10:04:56;;;;;;;6.70;4.18;;;;;;;;;;5055151;28;20360;-80
2023/04/23 10:07:31;;;;;;;8.50;4.80;;;;;;;;;;5055073;28;20029;-80
2023/04/23 10:09:57;;;;;;;8.70;5.63;;;;;;;;;;5056544;28;20079;-79
2023/04/23 10:12:23;;;;;;;6.30;5.70;;;;;;;;;;5056260;28;20025;-80
2023/04/23 10:14:52;;;;;;;6.43;5.82;;;;;;;;;;5054879;28;20378;-83
2023/04/23 10:17:18;;;;;;;7.50;6.30;;;;;;;;;;5054906;28;20371;-82
2023/04/23 10:19:45;;;;;;;6.28;5.68;;;;;;;;;;5026132;28;20075;-82
2023/04/23 10:22:11;;;;;;;6.28;5.28;;;;;;;;;;5043078;28;20414;-82
2023/04/23 10:24:42;;;;;;;6.28;5.68;;;;;;;;;;5043833;28;20029;-81
2023/04/23 10:27:11;;;;;;;11.00;5.90;;;;;;;;;;5054662;28;20348;-82
2023/04/23 10:29:37;;;;;;;6.45;5.65;;;;;;;;;;5054343;28;20033;-84
2023/04/23 10:32:05;;;;;;;6.80;6.20;;;;;;;;;;5054626;28;20017;-83
2023/04/23 10:34:31;;;;;;;7.13;6.50;;;;;;;;;;5056213;28;20017;-83
2023/04/23 10:36:59;;;;;;;7.57;5.85;;;;;;;;;;5053925;28;20033;-83
2023/04/23 10:39:26;;;;;;;6.40;5.53;;;;;;;;;;5054809;28;20343;-83
2023/04/23 10:41:54;;;;;;;7.18;6.22;;;;;;;;;;5055740;28;20096;-83
2023/04/23 10:44:20;;;;;;;6.93;6.32;;;;;;;;;;5044069;28;20017;-81
2023/04/23 10:46:51;;;;;;;7.05;6.35;;;;;;;;;;5051476;28;20052;-83
2023/04/23 10:49:17;;;;;;;6.95;6.38;;;;;;;;;;5069831;28;20025;-81
2023/04/23 10:51:49;;;;;;;7.20;6.57;;;;;;;;;;5054906;28;20402;-83
2023/04/23 10:54:17;;;;;;;6.95;6.22;;;;;;;;;;5059088;28;20150;-82
2023/04/23 10:56:43;;;;;;;7.00;6.40;;;;;;;;;;5055178;28;20021;-82
2023/04/23 10:59:19;;;;;;;7.72;6.45;;;;;;;;;;5070467;28;20027;-83
2023/04/23 11:01:49;;;;;;;7.68;6.30;;;;;;;;;;5058707;28;20108;-81
2023/04/23 11:04:26;;;;;;;7.70;6.93;;;;;;;;;;5067720;28;20024;-81
2023/04/23 11:06:54;;;;;;;8.25;6.97;;;;;;;;;;5073986;28;20348;-81
2023/04/23 11:09:32;;;;;;;33.00;11.82;;;;;;;;;;5073969;28;20416;-82
2023/04/23 11:12:02;;;;;;;8.73;7.05;;;;;;;;;;5064683;28;20379;-83
2023/04/23 11:14:37;;;;;;;10.82;7.53;;;;;;;;;;5075010;28;20049;-81
2023/04/23 11:17:05;;;;;;;11.98;9.43;;;;;;;;;;5075092;28;20134;-82
2023/04/23 11:19:34;;;;;;;52.75;17.45;;;;;;;;;;5074997;28;20016;-82
2023/04/23 11:22:14;;;;;;;8.85;7.72;;;;;;;;;;5075002;28;20055;-83
2023/04/23 11:24:41;;;;;;;22.15;10.27;;;;;;;;;;5074489;28;20485;-81
2023/04/23 11:27:11;;;;;;;26.65;13.57;;;;;;;;;;5073492;28;20040;-81
2023/04/23 11:29:39;;;;;;;12.02;9.25;;;;;;;;;;5073488;28;20024;-80
2023/04/23 11:32:09;;;;;;;12.50;7.90;;;;;;;;;;5074423;28;20059;-81
2023/04/23 11:34:35;;;;;;;8.98;8.18;;;;;;;;;;5073831;28;20032;-80
2023/04/23 11:37:02;;;;;;;8.40;7.47;;;;;;;;;;5067748;28;20029;-80
2023/04/23 11:39:30;;;;;;;8.40;7.50;;;;;;;;;;5056482;28;20356;-83
2023/04/23 11:42:02;;;;;;;8.35;7.65;;;;;;;;;;5074497;28;20101;-81
2023/04/23 11:44:29;;;;;;;8.88;7.88;;;;;;;;;;5049912;28;20032;-80
2023/04/23 11:46:59;;;;;;;7.85;7.15;;;;;;;;;;5081562;28;20062;-81
2023/04/23 11:49:28;;;;;;;7.00;6.30;;;;;;;;;;5078828;28;20062;-83
2023/04/23 11:51:55;;;;;;;7.43;6.93;;;;;;;;;;5069576;28;20113;-82
2023/04/23 11:54:26;;;;;;;8.32;7.72;;;;;;;;;;5066264;28;20025;-82
2023/04/23 11:56:53;;;;;;;8.25;7.57;;;;;;;;;;5081951;28;20020;-82
2023/04/23 11:59:20;;;;;;;7.95;7.35;;;;;;;;;;5094456;28;20062;-81
2023/04/23 12:01:50;;;;;;;8.75;7.85;;;;;;;;;;5075926;28;20027;-81
2023/04/23 12:04:20;;;;;;;7.60;6.90;;;;;;;;;;5094490;28;20031;-80
2023/04/23 12:06:50;;;;;;;8.23;7.63;;;;;;;;;;5073581;28;20052;-80
2023/04/23 12:09:17;;;;;;;7.93;7.22;;;;;;;;;;5073190;28;20118;-82
2023/04/23 12:11:47;;;;;;;9.35;7.60;;;;;;;;;;5093879;28;20028;-80
2023/04/23 12:14:14;;;;;;;8.05;7.45;;;;;;;;;;5075788;28;20459;-81
2023/04/23 12:16:40;;;;;;;8.50;7.57;;;;;;;;;;5075959;28;20089;-83
2023/04/23 12:19:08;;;;;;;8.35;7.75;;;;;;;;;;5094178;28;20073;-80
2023/04/23 12:21:34;;;;;;;9.40;8.50;;;;;;;;;;5093236;28;20110;-79
2023/04/23 12:24:06;;;;;;;8.02;7.30;;;;;;;;;;5093942;28;20023;-80
2023/04/23 12:26:32;;;;;;;9.00;8.40;;;;;;;;;;5094258;28;20020;-80
2023/04/23 12:28:59;;;;;;;9.05;8.20;;;;;;;;;;5092821;28;20024;-79
2023/04/23 12:31:32;;;;;;;9.07;8.27;;;;;;;;;;5074641;28;20024;-79
2023/04/23 12:33:58;;;;;;;9.20;8.40;;;;;;;;;;5074613;28;20020;-81
2023/04/23 12:36:29;;;;;;;8.52;7.95;;;;;;;;;;5074084;28;20024;-81
2023/04/23 12:39:15;;;;;;;8.63;8.03;;;;;;;;;;5074511;28;20530;-81
2023/04/23 12:41:41;;;;;;;8.55;7.72;;;;;;;;;;5092415;28;20012;-80
2023/04/23 12:44:07;;;;;;;7.90;7.20;;;;;;;;;;5074998;28;20038;-79
2023/04/23 12:46:33;;;;;;;8.30;7.60;;;;;;;;;;5093110;28;20093;-79
2023/04/23 12:48:59;;;;;;;8.05;7.35;;;;;;;;;;5075077;28;20022;-80
2023/04/23 12:51:26;;;;;;;7.97;7.28;;;;;;;;;;5056797;28;20013;-80
2023/04/23 12:53:54;;;;;;;9.00;8.30;;;;;;;;;;5071025;28;20077;-80
2023/04/23 12:56:20;;;;;;;7.60;7.10;;;;;;;;;;5075329;28;20024;-80
2023/04/23 12:58:47;;;;;;;8.98;8.07;;;;;;;;;;5093768;28;20028;-80
2023/04/23 13:01:13;;;;;;;8.50;7.82;;;;;;;;;;5093945;28;20015;-80
2023/04/23 13:03:39;;;;;;;8.88;8.18;;;;;;;;;;5093497;28;20054;-81
2023/04/23 13:06:08;;;;;;;8.27;7.68;;;;;;;;;;5093599;28;20215;-81
2023/04/23 13:08:35;;;;;;;8.98;8.27;;;;;;;;;;5093787;28;20029;-80
2023/04/23 13:11:01;;;;;;;8.10;7.50;;;;;;;;;;5074895;28;20047;-80